sensor_id;sensor_type;location;lat;lon;timestamp;pressure;altitude;pressure_sealevel;temperature;humidity
32237;BME280;18726;44.732;10.550;2023-04-07T00:02:48;101175.66;;;6.71;97.60
32237;BME280;18726;44.732;10.550;2023-04-07T00:05:51;101182.13;;;6.84;100.00
32237;BME280;18726;44.732;10.550;2023-04-07T00:08:54;101179.00;;;6.99;100.00
32237;BME280;18726;44.732;10.550;2023-04-07T00:11:58;101175.81;;;7.76;100.00
32237;BME280;18726;44.732;10.550;2023-04-07T00:15:04;101171.22;;;8.11;100.00
32237;BME280;18726;44.732;10.550;2023-04-07T00:18:08;101173.63;;;7.95;100.00
32237;BME280;18726;44.732;10.550;2023-04-07T00:21:11;101177.09;;;7.87;100.00
32237;BME280;18726;44.732;10.550;2023-04-07T00:24:14;101174.22;;;7.75;100.00
32237;BME280;18726;44.732;10.550;2023-04-07T00:27:18;101164.59;;;7.43;100.00
32237;BME280;18726;44.732;10.550;2023-04-07T00:30:21;101157.72;;;6.97;98.60
32237;BME280;18726;44.732;10.550;2023-04-07T00:33:25;101158.66;;;6.93;100.00
32237;BME280;18726;44.732;10.550;2023-04-07T00:36:29;101151.56;;;7.05;100.00
32237;BME280;18726;44.732;10.550;2023-04-07T00:39:33;101152.31;;;8.02;100.00
32237;BME280;18726;44.732;10.550;2023-04-07T00:42:37;101164.09;;;8.06;100.00
32237;BME280;18726;44.732;10.550;2023-04-07T00:45:40;101157.09;;;8.57;100.00
32237;BME280;18726;44.732;10.550;2023-04-07T00:48:44;101158.00;;;8.70;100.00
32237;BME280;18726;44.732;10.550;2023-04-07T00:51:47;101154.19;;;8.79;100.00
32237;BME280;18726;44.732;10.550;2023-04-07T00:54:52;101151.03;;;8.26;100.00
32237;BME280;18726;44.732;10.550;2023-04-07T00:57:56;101145.84;;;7.47;100.00
32237;BME280;18726;44.732;10.550;2023-04-07T01:04:11;101138.69;;;6.49;100.00
32237;BME280;18726;44.732;10.550;2023-04-07T01:07:25;101135.09;;;5.95;100.00
32237;BME280;18726;44.732;10.550;2023-04-07T01:10:47;101121.63;;;5.95;100.00
32237;BME280;18726;44.732;10.550;2023-04-07T01:13:56;101121.31;;;5.83;100.00
32237;BME280;18726;44.732;10.550;2023-04-07T01:17:08;101118.59;;;5.47;100.00
32237;BME280;18726;44.732;10.550;2023-04-07T01:20:13;101122.78;;;5.26;100.00
32237;BME280;18726;44.732;10.550;2023-04-07T01:23:23;101115.81;;;5.38;100.00
32237;BME280;18726;44.732;10.550;2023-04-07T01:26:31;101114.28;;;6.09;100.00
32237;BME280;18726;44.732;10.550;2023-04-07T01:32:38;101110.13;;;6.48;100.00
32237;BME280;18726;44.732;10.550;2023-04-07T01:35:43;101112.53;;;6.27;100.00
32237;BME280;18726;44.732;10.550;2023-04-07T01:38:48;101114.28;;;6.09;100.00
32237;BME280;18726;44.732;10.550;2023-04-07T01:41:53;101107.34;;;5.81;100.00
32237;BME280;18726;44.732;10.550;2023-04-07T01:44:57;101107.72;;;5.88;100.00
32237;BME280;18726;44.732;10.550;2023-04-07T01:48:01;101103.94;;;6.03;100.00
32237;BME280;18726;44.732;10.550;2023-04-07T01:51:07;101095.34;;;6.46;100.00
32237;BME280;18726;44.732;10.550;2023-04-07T01:54:11;101104.19;;;7.48;100.00
32237;BME280;18726;44.732;10.550;2023-04-07T01:57:15;101116.34;;;7.76;100.00
32237;BME280;18726;44.732;10.550;2023-04-07T02:00:19;101116.97;;;7.90;100.00
32237;BME280;18726;44.732;10.550;2023-04-07T02:03:29;101110.75;;;8.16;100.00
32237;BME280;18726;44.732;10.550;2023-04-07T02:06:38;101117.44;;;8.18;100.00
32237;BME280;18726;44.732;10.550;2023-04-07T02:09:44;101126.09;;;7.37;100.00
32237;BME280;18726;44.732;10.550;2023-04-07T02:12:49;101122.84;;;6.78;100.00
32237;BME280;18726;44.732;10.550;2023-04-07T02:15:55;101119.94;;;6.44;100.00
32237;BME280;18726;44.732;10.550;2023-04-07T02:18:59;101117.13;;;6.27;100.00
32237;BME280;18726;44.732;10.550;2023-04-07T02:22:04;101121.16;;;6.16;100.00
32237;BME280;18726;44.732;10.550;2023-04-07T02:25:24;101105.16;;;6.41;100.00
32237;BME280;18726;44.732;10.550;2023-04-07T02:28:30;101108.28;;;6.57;100.00
32237;BME280;18726;44.732;10.550;2023-04-07T02:31:33;101110.50;;;6.33;100.00
32237;BME280;18726;44.732;10.550;2023-04-07T02:34:37;101116.44;;;6.21;100.00
32237;BME280;18726;44.732;10.550;2023-04-07T02:37:43;101114.16;;;6.37;100.00
32237;BME280;18726;44.732;10.550;2023-04-07T02:40:46;101111.69;;;6.71;100.00
32237;BME280;18726;44.732;10.550;2023-04-07T02:43:49;101115.09;;;6.86;100.00
32237;BME280;18726;44.732;10.550;2023-04-07T02:46:52;101109.25;;;6.92;100.00
32237;BME280;18726;44.732;10.550;2023-04-07T02:49:56;101119.06;;;7.19;100.00
32237;BME280;18726;44.732;10.550;2023-04-07T02:52:59;101115.94;;;7.52;100.00
32237;BME280;18726;44.732;10.550;2023-04-07T02:56:03;101117.97;;;7.29;100.00
32237;BME280;18726;44.732;10.550;2023-04-07T02:59:07;101123.50;;;7.15;100.00
32237;BME280;18726;44.732;10.550;2023-04-07T03:02:15;101126.75;;;7.52;100.00
32237;BME280;18726;44.732;10.550;2023-04-07T03:05:19;101122.41;;;8.07;100.00
32237;BME280;18726;44.732;10.550;2023-04-07T03:08:23;101128.75;;;8.11;100.00
32237;BME280;18726;44.732;10.550;2023-04-07T03:11:26;101128.00;;;8.37;100.00
32237;BME280;18726;44.732;10.550;2023-04-07T03:14:32;101128.31;;;8.35;100.00
32237;BME280;18726;44.732;10.550;2023-04-07T03:17:37;101115.22;;;8.29;100.00
32237;BME280;18726;44.732;10.550;2023-04-07T03:20:41;101120.63;;;7.94;100.00
32237;BME280;18726;44.732;10.550;2023-04-07T03:23:48;101118.41;;;8.13;100.00
32237;BME280;18726;44.732;10.550;2023-04-07T03:26:51;101107.28;;;8.06;100.00
32237;BME280;18726;44.732;10.550;2023-04-07T03:30:01;101105.34;;;7.81;100.00
32237;BME280;18726;44.732;10.550;2023-04-07T03:33:05;101105.09;;;7.34;100.00
32237;BME280;18726;44.732;10.550;2023-04-07T03:36:09;101102.63;;;7.07;100.00
32237;BME280;18726;44.732;10.550;2023-04-07T03:39:13;101104.56;;;6.75;100.00
32237;BME280;18726;44.732;10.550;2023-04-07T03:42:16;101104.47;;;6.14;100.00
32237;BME280;18726;44.732;10.550;2023-04-07T03:45:21;101101.69;;;5.69;100.00
32237;BME280;18726;44.732;10.550;2023-04-07T03:48:26;101101.75;;;5.41;100.00
32237;BME280;18726;44.732;10.550;2023-04-07T03:51:47;101098.09;;;6.09;100.00
32237;BME280;18726;44.732;10.550;2023-04-07T03:54:53;101098.09;;;6.54;100.00
32237;BME280;18726;44.732;10.550;2023-04-07T03:58:01;101098.91;;;6.86;100.00
32237;BME280;18726;44.732;10.550;2023-04-07T04:01:07;101112.53;;;6.81;100.00
32237;BME280;18726;44.732;10.550;2023-04-07T04:04:11;101119.69;;;6.54;100.00
32237;BME280;18726;44.732;10.550;2023-04-07T04:07:15;101112.31;;;6.46;100.00
32237;BME280;18726;44.732;10.550;2023-04-07T04:10:25;101114.78;;;6.87;100.00
32237;BME280;18726;44.732;10.550;2023-04-07T04:13:30;101114.53;;;7.06;100.00
32237;BME280;18726;44.732;10.550;2023-04-07T04:16:38;101124.84;;;7.43;100.00
32237;BME280;18726;44.732;10.550;2023-04-07T04:19:51;101131.44;;;6.81;100.00
32237;BME280;18726;44.732;10.550;2023-04-07T04:23:01;101122.41;;;6.94;100.00
32237;BME280;18726;44.732;10.550;2023-04-07T04:26:05;101127.81;;;6.94;100.00
32237;BME280;18726;44.732;10.550;2023-04-07T04:29:09;101131.63;;;7.32;100.00
32237;BME280;18726;44.732;10.550;2023-04-07T04:32:14;101137.38;;;7.00;100.00
32237;BME280;18726;44.732;10.550;2023-04-07T04:35:20;101133.22;;;6.94;100.00
32237;BME280;18726;44.732;10.550;2023-04-07T04:38:36;101137.44;;;6.77;100.00
32237;BME280;18726;44.732;10.550;2023-04-07T04:41:46;101135.44;;;6.16;100.00
32237;BME280;18726;44.732;10.550;2023-04-07T04:44:50;101133.81;;;5.79;100.00
32237;BME280;18726;44.732;10.550;2023-04-07T04:47:54;101137.56;;;5.28;100.00
32237;BME280;18726;44.732;10.550;2023-04-07T04:50:58;101140.81;;;4.98;100.00
32237;BME280;18726;44.732;10.550;2023-04-07T04:54:01;101137.44;;;5.06;100.00
32237;BME280;18726;44.732;10.550;2023-04-07T04:57:06;101149.44;;;5.14;100.00
32237;BME280;18726;44.732;10.550;2023-04-07T05:00:11;101146.31;;;5.20;100.00
32237;BME280;18726;44.732;10.550;2023-04-07T05:03:18;101136.06;;;5.22;100.00
32237;BME280;18726;44.732;10.550;2023-04-07T05:06:27;101131.75;;;5.21;100.00
32237;BME280;18726;44.732;10.550;2023-04-07T05:09:34;101136.75;;;5.14;100.00
32237;BME280;18726;44.732;10.550;2023-04-07T05:12:39;101129.97;;;5.30;100.00
32237;BME280;18726;44.732;10.550;2023-04-07T05:15:43;101130.63;;;5.91;100.00
32237;BME280;18726;44.732;10.550;2023-04-07T05:18:48;101133.75;;;6.73;100.00
32237;BME280;18726;44.732;10.550;2023-04-07T05:21:53;101132.72;;;8.14;100.00
32237;BME280;18726;44.732;10.550;2023-04-07T05:24:58;101128.28;;;9.67;100.00
32237;BME280;18726;44.732;10.550;2023-04-07T05:28:02;101137.28;;;10.42;84.55
32237;BME280;18726;44.732;10.550;2023-04-07T05:31:05;101130.22;;;11.07;75.69
32237;BME280;18726;44.732;10.550;2023-04-07T05:34:09;101132.84;;;11.40;64.26
32237;BME280;18726;44.732;10.550;2023-04-07T05:37:20;101129.09;;;11.32;62.62
32237;BME280;18726;44.732;10.550;2023-04-07T05:40:24;101124.31;;;11.29;64.11
32237;BME280;18726;44.732;10.550;2023-04-07T05:43:28;101120.69;;;11.01;61.18
32237;BME280;18726;44.732;10.550;2023-04-07T05:46:31;101109.97;;;10.59;62.70
32237;BME280;18726;44.732;10.550;2023-04-07T05:49:35;101116.75;;;10.53;62.74
32237;BME280;18726;44.732;10.550;2023-04-07T05:52:42;101112.53;;;10.89;66.07
32237;BME280;18726;44.732;10.550;2023-04-07T05:55:56;101111.84;;;11.65;60.10
32237;BME280;18726;44.732;10.550;2023-04-07T05:59:17;101107.97;;;12.18;58.61
32237;BME280;18726;44.732;10.550;2023-04-07T06:02:22;101113.75;;;13.04;55.78
32237;BME280;18726;44.732;10.550;2023-04-07T06:05:27;101110.53;;;13.65;53.09
32237;BME280;18726;44.732;10.550;2023-04-07T06:08:32;101122.84;;;13.74;51.95
32237;BME280;18726;44.732;10.550;2023-04-07T06:11:36;101128.09;;;13.83;51.79
32237;BME280;18726;44.732;10.550;2023-04-07T06:14:39;101133.66;;;14.64;51.41
32237;BME280;18726;44.732;10.550;2023-04-07T06:17:43;101133.28;;;15.57;50.52
32237;BME280;18726;44.732;10.550;2023-04-07T06:20:48;101143.88;;;15.88;48.87
32237;BME280;18726;44.732;10.550;2023-04-07T06:23:51;101146.84;;;16.36;47.99
32237;BME280;18726;44.732;10.550;2023-04-07T06:26:55;101140.59;;;16.72;45.79
32237;BME280;18726;44.732;10.550;2023-04-07T06:29:59;101136.63;;;16.66;46.32
32237;BME280;18726;44.732;10.550;2023-04-07T06:33:03;101126.13;;;16.75;44.82
32237;BME280;18726;44.732;10.550;2023-04-07T06:36:07;101140.63;;;17.20;44.02
32237;BME280;18726;44.732;10.550;2023-04-07T06:39:12;101140.16;;;17.62;42.84
32237;BME280;18726;44.732;10.550;2023-04-07T06:42:15;101125.16;;;18.14;42.89
32237;BME280;18726;44.732;10.550;2023-04-07T06:45:27;101127.34;;;18.99;41.16
32237;BME280;18726;44.732;10.550;2023-04-07T06:48:30;101128.13;;;19.21;39.23
32237;BME280;18726;44.732;10.550;2023-04-07T06:51:34;101121.78;;;19.38;39.90
32237;BME280;18726;44.732;10.550;2023-04-07T06:54:37;101121.41;;;19.43;39.68
32237;BME280;18726;44.732;10.550;2023-04-07T08:35:42;101089.81;;;31.50;24.77
32237;BME280;18726;44.732;10.550;2023-04-07T08:38:45;101092.38;;;32.71;23.67
32237;BME280;18726;44.732;10.550;2023-04-07T08:41:49;101091.31;;;33.44;23.65
32237;BME280;18726;44.732;10.550;2023-04-07T08:44:53;101091.63;;;30.34;25.83
32237;BME280;18726;44.732;10.550;2023-04-07T08:47:58;101095.69;;;33.05;25.45
32237;BME280;18726;44.732;10.550;2023-04-07T08:51:06;101103.59;;;34.99;23.26
32237;BME280;18726;44.732;10.550;2023-04-07T08:54:12;101097.47;;;36.27;22.21
32237;BME280;18726;44.732;10.550;2023-04-07T08:57:16;101096.91;;;34.91;21.04
32237;BME280;18726;44.732;10.550;2023-04-07T09:00:19;101095.13;;;34.93;22.63
32237;BME280;18726;44.732;10.550;2023-04-07T09:03:23;101084.50;;;33.57;22.40
32237;BME280;18726;44.732;10.550;2023-04-07T09:06:29;101089.06;;;33.08;24.91
32237;BME280;18726;44.732;10.550;2023-04-07T09:09:33;101074.28;;;33.13;25.27
32237;BME280;18726;44.732;10.550;2023-04-07T09:12:38;101077.88;;;32.23;24.71
32237;BME280;18726;44.732;10.550;2023-04-07T09:15:41;101068.13;;;29.16;25.92
32237;BME280;18726;44.732;10.550;2023-04-07T09:18:44;101069.41;;;28.66;28.45
32237;BME280;18726;44.732;10.550;2023-04-07T09:24:51;101067.09;;;28.02;26.83
32237;BME280;18726;44.732;10.550;2023-04-07T09:27:56;101056.06;;;26.86;28.59
32237;BME280;18726;44.732;10.550;2023-04-07T09:30:59;101056.88;;;28.79;29.36
32237;BME280;18726;44.732;10.550;2023-04-07T09:34:04;101056.63;;;28.15;27.92
32237;BME280;18726;44.732;10.550;2023-04-07T09:37:25;101049.97;;;26.02;28.97
32237;BME280;18726;44.732;10.550;2023-04-07T09:40:28;101042.34;;;23.86;30.67
32237;BME280;18726;44.732;10.550;2023-04-07T09:43:32;101043.81;;;25.40;31.43
32237;BME280;18726;44.732;10.550;2023-04-07T09:50:10;101033.72;;;28.20;29.48
32237;BME280;18726;44.732;10.550;2023-04-07T09:53:14;101027.06;;;28.27;27.84
32237;BME280;18726;44.732;10.550;2023-04-07T09:56:19;101026.34;;;27.83;26.95
32237;BME280;18726;44.732;10.550;2023-04-07T09:59:24;101018.03;;;27.05;29.35
32237;BME280;18726;44.732;10.550;2023-04-07T10:02:28;101005.09;;;25.17;30.64
32237;BME280;18726;44.732;10.550;2023-04-07T10:05:31;101020.56;;;23.45;29.15
32237;BME280;18726;44.732;10.550;2023-04-07T10:08:37;101010.13;;;21.51;31.03
32237;BME280;18726;44.732;10.550;2023-04-07T10:11:40;101006.00;;;22.51;33.17
32237;BME280;18726;44.732;10.550;2023-04-07T10:14:44;101003.63;;;23.79;33.38
32237;BME280;18726;44.732;10.550;2023-04-07T10:17:49;101000.81;;;25.41;31.14
32237;BME280;18726;44.732;10.550;2023-04-07T10:20:54;100999.81;;;24.90;31.63
32237;BME280;18726;44.732;10.550;2023-04-07T10:23:58;101004.19;;;25.07;30.21
32237;BME280;18726;44.732;10.550;2023-04-07T10:27:06;100998.59;;;25.65;30.07
32237;BME280;18726;44.732;10.550;2023-04-07T10:30:13;100991.47;;;26.28;31.53
32237;BME280;18726;44.732;10.550;2023-04-07T10:33:17;100990.34;;;24.87;28.75
32237;BME280;18726;44.732;10.550;2023-04-07T10:43:38;100974.59;;;21.50;33.24
32237;BME280;18726;44.732;10.550;2023-04-07T10:53:14;100958.00;;;20.78;35.51
32237;BME280;18726;44.732;10.550;2023-04-07T10:56:18;100948.31;;;22.22;32.75
32237;BME280;18726;44.732;10.550;2023-04-07T10:59:21;100944.72;;;23.35;32.32
32237;BME280;18726;44.732;10.550;2023-04-07T11:02:29;100944.44;;;23.10;29.90
32237;BME280;18726;44.732;10.550;2023-04-07T11:05:34;100934.53;;;22.42;31.61
32237;BME280;18726;44.732;10.550;2023-04-07T11:08:41;100932.03;;;22.95;29.62
32237;BME280;18726;44.732;10.550;2023-04-07T11:11:45;100940.47;;;21.64;31.51
32237;BME280;18726;44.732;10.550;2023-04-07T11:14:49;100930.63;;;21.29;31.83
32237;BME280;18726;44.732;10.550;2023-04-07T11:18:05;100927.63;;;21.46;34.49
32237;BME280;18726;44.732;10.550;2023-04-07T11:21:09;100920.03;;;20.48;34.59
32237;BME280;18726;44.732;10.550;2023-04-07T11:27:35;100930.16;;;21.00;31.54
32237;BME280;18726;44.732;10.550;2023-04-07T11:30:43;100933.06;;;21.84;33.08
32237;BME280;18726;44.732;10.550;2023-04-07T11:33:50;100926.66;;;22.41;30.41
32237;BME280;18726;44.732;10.550;2023-04-07T11:36:54;100926.94;;;20.67;32.79
32237;BME280;18726;44.732;10.550;2023-04-07T11:40:01;100921.34;;;21.08;31.27
32237;BME280;18726;44.732;10.550;2023-04-07T11:43:17;100922.13;;;20.27;32.56
32237;BME280;18726;44.732;10.550;2023-04-07T11:46:21;100919.69;;;20.39;33.17
32237;BME280;18726;44.732;10.550;2023-04-07T11:49:26;100912.41;;;19.35;35.15
32237;BME280;18726;44.732;10.550;2023-04-07T11:52:46;100917.97;;;20.56;36.44
32237;BME280;18726;44.732;10.550;2023-04-07T11:55:57;100920.16;;;19.72;34.08
32237;BME280;18726;44.732;10.550;2023-04-07T11:59:00;100914.81;;;20.06;35.01
32237;BME280;18726;44.732;10.550;2023-04-07T12:02:04;100923.69;;;21.10;35.00
32237;BME280;18726;44.732;10.550;2023-04-07T12:05:09;100915.03;;;21.08;34.39
32237;BME280;18726;44.732;10.550;2023-04-07T12:08:13;100917.03;;;20.21;35.19
32237;BME280;18726;44.732;10.550;2023-04-07T12:11:18;100923.44;;;20.11;33.84
32237;BME280;18726;44.732;10.550;2023-04-07T12:14:22;100922.06;;;20.37;34.53
32237;BME280;18726;44.732;10.550;2023-04-07T12:17:25;100913.00;;;19.85;34.52
32237;BME280;18726;44.732;10.550;2023-04-07T12:20:29;100916.50;;;19.02;36.03
32237;BME280;18726;44.732;10.550;2023-04-07T12:23:33;100911.25;;;20.09;35.00
32237;BME280;18726;44.732;10.550;2023-04-07T12:26:37;100915.81;;;20.74;36.13
32237;BME280;18726;44.732;10.550;2023-04-07T12:29:41;100913.81;;;19.78;35.31
32237;BME280;18726;44.732;10.550;2023-04-07T12:32:46;100919.44;;;19.61;34.05
32237;BME280;18726;44.732;10.550;2023-04-07T12:35:50;100918.09;;;18.96;34.57
32237;BME280;18726;44.732;10.550;2023-04-07T12:38:57;100906.75;;;18.30;35.38
32237;BME280;18726;44.732;10.550;2023-04-07T12:42:01;100905.91;;;18.82;36.43
32237;BME280;18726;44.732;10.550;2023-04-07T12:45:04;100904.75;;;18.51;35.13
32237;BME280;18726;44.732;10.550;2023-04-07T12:48:08;100913.81;;;18.59;34.59
32237;BME280;18726;44.732;10.550;2023-04-07T12:51:11;100917.25;;;19.06;36.05
32237;BME280;18726;44.732;10.550;2023-04-07T12:54:15;100910.22;;;19.05;35.82
32237;BME280;18726;44.732;10.550;2023-04-07T12:57:18;100912.63;;;18.53;34.61
32237;BME280;18726;44.732;10.550;2023-04-07T13:00:21;100912.22;;;18.51;36.38
32237;BME280;18726;44.732;10.550;2023-04-07T13:03:25;100902.81;;;18.38;37.71
32237;BME280;18726;44.732;10.550;2023-04-07T13:06:28;100899.28;;;18.44;36.81
32237;BME280;18726;44.732;10.550;2023-04-07T13:09:31;100904.41;;;18.64;37.42
32237;BME280;18726;44.732;10.550;2023-04-07T13:12:35;100895.34;;;18.63;38.53
32237;BME280;18726;44.732;10.550;2023-04-07T13:15:39;100901.16;;;19.01;40.64
32237;BME280;18726;44.732;10.550;2023-04-07T13:18:42;100907.91;;;18.50;39.33
32237;BME280;18726;44.732;10.550;2023-04-07T13:21:45;100901.66;;;18.39;39.37
32237;BME280;18726;44.732;10.550;2023-04-07T13:24:49;100911.06;;;18.55;39.71
32237;BME280;18726;44.732;10.550;2023-04-07T13:27:52;100918.94;;;18.68;41.63
32237;BME280;18726;44.732;10.550;2023-04-07T13:30:56;100916.56;;;18.55;41.12
32237;BME280;18726;44.732;10.550;2023-04-07T13:33:59;100919.31;;;18.55;41.09
32237;BME280;18726;44.732;10.550;2023-04-07T13:37:02;100919.69;;;18.82;48.79
32237;BME280;18726;44.732;10.550;2023-04-07T13:40:06;100914.09;;;19.11;56.09
32237;BME280;18726;44.732;10.550;2023-04-07T13:43:10;100907.81;;;19.10;59.75
32237;BME280;18726;44.732;10.550;2023-04-07T13:46:14;100910.56;;;19.07;59.81
32237;BME280;18726;44.732;10.550;2023-04-07T13:49:20;100907.06;;;19.03;54.54
32237;BME280;18726;44.732;10.550;2023-04-07T13:52:24;100910.94;;;19.09;55.41
32237;BME280;18726;44.732;10.550;2023-04-07T13:55:27;100907.00;;;19.10;67.11
32237;BME280;18726;44.732;10.550;2023-04-07T13:58:31;100905.03;;;19.21;66.36
32237;BME280;18726;44.732;10.550;2023-04-07T14:01:34;100910.09;;;19.33;66.98
32237;BME280;18726;44.732;10.550;2023-04-07T14:04:38;100906.50;;;19.43;68.36
32237;BME280;18726;44.732;10.550;2023-04-07T14:07:41;100910.00;;;19.47;66.03
32237;BME280;18726;44.732;10.550;2023-04-07T14:10:44;100906.88;;;19.45;63.03
32237;BME280;18726;44.732;10.550;2023-04-07T14:13:48;100910.44;;;19.42;62.46
32237;BME280;18726;44.732;10.550;2023-04-07T14:16:51;100911.28;;;19.32;59.15
32237;BME280;18726;44.732;10.550;2023-04-07T14:19:55;100914.19;;;18.82;55.08
32237;BME280;18726;44.732;10.550;2023-04-07T14:22:58;100916.53;;;18.84;56.19
32237;BME280;18726;44.732;10.550;2023-04-07T14:26:01;100907.94;;;18.61;57.47
32237;BME280;18726;44.732;10.550;2023-04-07T14:29:05;100917.34;;;18.24;59.72
32237;BME280;18726;44.732;10.550;2023-04-07T14:32:08;100906.38;;;18.13;60.52
32237;BME280;18726;44.732;10.550;2023-04-07T14:35:11;100909.13;;;18.13;68.44
32237;BME280;18726;44.732;10.550;2023-04-07T14:38:15;100910.66;;;18.21;69.29
32237;BME280;18726;44.732;10.550;2023-04-07T14:41:18;100913.84;;;18.16;65.20
32237;BME280;18726;44.732;10.550;2023-04-07T14:44:22;100916.56;;;18.13;66.53
32237;BME280;18726;44.732;10.550;2023-04-07T14:47:25;100919.69;;;18.04;66.33
32237;BME280;18726;44.732;10.550;2023-04-07T14:50:32;100924.41;;;17.90;62.75
32237;BME280;18726;44.732;10.550;2023-04-07T14:53:36;100926.72;;;17.73;65.18
32237;BME280;18726;44.732;10.550;2023-04-07T14:56:39;100911.81;;;17.78;72.80
32237;BME280;18726;44.732;10.550;2023-04-07T14:59:43;100918.13;;;17.89;74.92
32237;BME280;18726;44.732;10.550;2023-04-07T15:02:47;100920.47;;;18.01;75.57
32237;BME280;18726;44.732;10.550;2023-04-07T15:05:51;100915.78;;;18.05;74.65
32237;BME280;18726;44.732;10.550;2023-04-07T15:08:54;100924.44;;;18.11;75.17
32237;BME280;18726;44.732;10.550;2023-04-07T15:11:57;100922.06;;;18.09;74.92
32237;BME280;18726;44.732;10.550;2023-04-07T15:15:02;100925.19;;;17.90;71.79
32237;BME280;18726;44.732;10.550;2023-04-07T15:18:06;100921.63;;;17.79;75.00
32237;BME280;18726;44.732;10.550;2023-04-07T15:21:09;100922.78;;;17.74;76.17
32237;BME280;18726;44.732;10.550;2023-04-07T15:24:13;100929.03;;;17.68;77.59
32237;BME280;18726;44.732;10.550;2023-04-07T15:27:16;100928.25;;;17.67;76.92
32237;BME280;18726;44.732;10.550;2023-04-07T15:30:20;100929.38;;;17.55;71.00
32237;BME280;18726;44.732;10.550;2023-04-07T15:33:23;100933.66;;;17.46;70.78
32237;BME280;18726;44.732;10.550;2023-04-07T15:36:26;100930.50;;;17.40;71.64
32237;BME280;18726;44.732;10.550;2023-04-07T15:39:29;100940.69;;;17.36;74.68
32237;BME280;18726;44.732;10.550;2023-04-07T15:42:33;100938.25;;;17.20;74.07
32237;BME280;18726;44.732;10.550;2023-04-07T15:45:43;100946.00;;;17.01;72.48
32237;BME280;18726;44.732;10.550;2023-04-07T15:48:47;100945.97;;;16.94;73.74
32237;BME280;18726;44.732;10.550;2023-04-07T15:51:51;100950.63;;;16.86;80.71
32237;BME280;18726;44.732;10.550;2023-04-07T15:54:54;100949.69;;;16.64;83.41
32237;BME280;18726;44.732;10.550;2023-04-07T15:57:57;100952.78;;;16.15;85.12
32237;BME280;18726;44.732;10.550;2023-04-07T16:01:01;100949.28;;;15.47;87.51
32237;BME280;18726;44.732;10.550;2023-04-07T16:04:05;100947.91;;;15.04;89.81
32237;BME280;18726;44.732;10.550;2023-04-07T16:07:08;100950.81;;;14.89;93.18
32237;BME280;18726;44.732;10.550;2023-04-07T16:10:12;100948.63;;;14.98;100.00
32237;BME280;18726;44.732;10.550;2023-04-07T16:13:16;100953.38;;;15.04;100.00
32237;BME280;18726;44.732;10.550;2023-04-07T16:16:19;100949.13;;;15.07;100.00
32237;BME280;18726;44.732;10.550;2023-04-07T16:19:23;100952.91;;;15.25;100.00
32237;BME280;18726;44.732;10.550;2023-04-07T16:22:27;100957.66;;;15.32;100.00
32237;BME280;18726;44.732;10.550;2023-04-07T16:25:31;100962.44;;;15.38;100.00
32237;BME280;18726;44.732;10.550;2023-04-07T16:28:35;100963.13;;;15.28;97.88
32237;BME280;18726;44.732;10.550;2023-04-07T16:31:39;100952.38;;;15.16;100.00
32237;BME280;18726;44.732;10.550;2023-04-07T16:34:44;100952.22;;;15.05;100.00
32237;BME280;18726;44.732;10.550;2023-04-07T16:37:47;100957.25;;;15.00;100.00
32237;BME280;18726;44.732;10.550;2023-04-07T16:40:52;100957.19;;;14.96;100.00
32237;BME280;18726;44.732;10.550;2023-04-07T16:43:55;100950.38;;;15.13;100.00
32237;BME280;18726;44.732;10.550;2023-04-07T16:46:58;100952.97;;;15.32;100.00
32237;BME280;18726;44.732;10.550;2023-04-07T16:50:03;100964.03;;;15.39;100.00
32237;BME280;18726;44.732;10.550;2023-04-07T16:53:06;100961.81;;;15.48;100.00
32237;BME280;18726;44.732;10.550;2023-04-07T16:59:20;100954.75;;;15.47;100.00
32237;BME280;18726;44.732;10.550;2023-04-07T17:02:23;100953.91;;;15.43;100.00
32237;BME280;18726;44.732;10.550;2023-04-07T17:05:27;100957.66;;;15.32;100.00
32237;BME280;18726;44.732;10.550;2023-04-07T17:08:34;100952.91;;;15.25;100.00
32237;BME280;18726;44.732;10.550;2023-04-07T17:11:39;100960.50;;;15.09;100.00
32237;BME280;18726;44.732;10.550;2023-04-07T17:14:43;100953.88;;;14.83;100.00
32237;BME280;18726;44.732;10.550;2023-04-07T17:17:46;100952.53;;;14.74;100.00
32237;BME280;18726;44.732;10.550;2023-04-07T17:20:50;100946.94;;;14.63;100.00
32237;BME280;18726;44.732;10.550;2023-04-07T17:23:53;100947.34;;;14.65;100.00
32237;BME280;18726;44.732;10.550;2023-04-07T17:26:57;100942.25;;;14.64;100.00
32237;BME280;18726;44.732;10.550;2023-04-07T17:30:01;100944.88;;;14.57;100.00
32237;BME280;18726;44.732;10.550;2023-04-07T17:33:04;100935.75;;;14.49;100.00
32237;BME280;18726;44.732;10.550;2023-04-07T17:36:10;100948.56;;;14.45;100.00
32237;BME280;18726;44.732;10.550;2023-04-07T17:39:13;100955.44;;;14.35;100.00
32237;BME280;18726;44.732;10.550;2023-04-07T17:42:16;100957.56;;;14.23;100.00
32237;BME280;18726;44.732;10.550;2023-04-07T17:45:20;100955.31;;;14.05;100.00
32237;BME280;18726;44.732;10.550;2023-04-07T17:48:23;100972.44;;;13.83;100.00
32237;BME280;18726;44.732;10.550;2023-04-07T17:51:27;100969.59;;;13.57;100.00
32237;BME280;18726;44.732;10.550;2023-04-07T17:54:30;100968.72;;;13.52;100.00
32237;BME280;18726;44.732;10.550;2023-04-07T17:57:34;100963.84;;;13.42;100.00
32237;BME280;18726;44.732;10.550;2023-04-07T18:00:40;100966.75;;;13.34;100.00
32237;BME280;18726;44.732;10.550;2023-04-07T18:03:44;100959.09;;;13.39;100.00